Time;durP1;ratioP1;P1;durP2;ratioP2;P2;SDS_P1;SDS_P2;PMS_P1;PMS_P2;Temp;Humidity;BMP_temperature;BMP_pressure;BME280_temperature;BME280_humidity;BME280_pressure;Samples;Min_cycle;Max_cycle;Signal;HPM_P1;HPM_P2
2023/06/02 00:02:17;;;;;;;15.60;8.35;;;;;;;18.43;100.00;100292.97;4980827;28;20054;-75
2023/06/02 00:04:44;;;;;;;10.38;7.85;;;;;;;18.04;100.00;100235.84;4978583;28;20050;-74
2023/06/02 00:07:11;;;;;;;10.23;6.38;;;;;;;18.36;100.00;100292.31;4980342;28;20423;-75
2023/06/02 00:09:39;;;;;;;10.32;6.00;;;;;;;17.69;100.00;100187.41;4979627;28;20042;-75
2023/06/02 00:12:05;;;;;;;9.93;6.10;;;;;;;17.75;100.00;100194.31;4979935;28;20058;-75
2023/06/02 00:14:34;;;;;;;19.73;8.48;;;;;;;17.72;100.00;100208.56;4979215;28;20046;-75
2023/06/02 00:17:03;;;;;;;9.93;5.95;;;;;;;17.45;100.00;100182.91;4979200;28;20482;-75
2023/06/02 00:19:30;;;;;;;10.02;6.00;;;;;;;17.96;100.00;100271.50;4963860;28;20047;-74
2023/06/02 00:22:01;;;;;;;10.30;7.03;;;;;;;18.04;100.00;100280.97;4961808;28;20368;-74
2023/06/02 00:24:26;;;;;;;10.30;7.03;;;;;;;17.86;100.00;100273.59;4960935;28;20026;-74
2023/06/02 00:26:52;;;;;;;8.88;6.78;;;;;;;17.89;100.00;100260.25;4960046;28;20062;-76
2023/06/02 00:29:17;;;;;;;10.77;5.82;;;;;;;17.76;100.00;100225.22;4974619;28;20050;-76
2023/06/02 00:31:43;;;;;;;12.95;8.50;;;;;;;17.18;100.00;100147.50;4975198;28;20053;-76
2023/06/02 00:34:08;;;;;;;8.40;6.20;;;;;;;17.36;100.00;100191.16;4975823;28;20076;-75
2023/06/02 00:36:35;;;;;;;8.48;6.63;;;;;;;17.43;100.00;100213.91;4979998;28;20035;-75
2023/06/02 00:39:00;;;;;;;8.05;5.88;;;;;;;16.70;100.00;100074.75;4978909;28;20061;-75
2023/06/02 00:41:26;;;;;;;8.57;6.07;;;;;;;17.71;100.00;100251.06;4979692;28;20050;-74
2023/06/02 00:43:52;;;;;;;11.02;6.55;;;;;;;17.56;100.00;100233.84;4979694;28;20043;-75
2023/06/02 00:46:18;;;;;;;10.35;5.57;;;;;;;17.70;100.00;100246.69;4976107;28;20046;-74
2023/06/02 00:48:44;;;;;;;9.65;6.97;;;;;;;16.94;100.00;100133.25;4978880;28;20026;-75
2023/06/02 00:51:10;;;;;;;9.45;6.57;;;;;;;17.21;100.00;100174.81;4979902;28;20054;-75
2023/06/02 00:53:36;;;;;;;15.35;7.15;;;;;;;17.08;100.00;100153.09;4979209;28;20051;-75
2023/06/02 00:56:02;;;;;;;9.95;6.55;;;;;;;17.13;100.00;100173.31;4982003;28;20050;-74
2023/06/02 00:58:30;;;;;;;10.40;6.28;;;;;;;17.04;100.00;100178.00;4982491;28;20057;-75
2023/06/02 01:00:56;;;;;;;16.35;7.95;;;;;;;17.43;100.00;100236.00;4977079;28;20174;-74
2023/06/02 01:03:25;;;;;;;10.85;6.35;;;;;;;17.43;100.00;100241.31;4976915;28;20042;-75
2023/06/02 01:05:55;;;;;;;10.05;6.18;;;;;;;17.22;100.00;100197.75;4976627;28;20046;-75
2023/06/02 01:08:21;;;;;;;17.25;6.15;;;;;;;17.20;100.00;100181.00;4979513;28;20254;-74
2023/06/02 01:10:47;;;;;;;12.68;7.40;;;;;;;17.20;100.00;100188.13;4979301;28;20137;-74
2023/06/02 01:13:12;;;;;;;11.85;6.90;;;;;;;16.88;100.00;100127.22;4977060;28;20050;-74
2023/06/02 01:15:38;;;;;;;10.45;6.80;;;;;;;17.27;100.00;100182.56;4978692;28;20474;-75
2023/06/02 01:18:09;;;;;;;9.15;5.80;;;;;;;17.25;100.00;100168.47;4983489;28;20450;-75
2023/06/02 01:20:39;;;;;;;13.10;6.90;;;;;;;17.95;100.00;100283.06;4981550;28;20050;-76
2023/06/02 01:23:33;;;;;;;8.80;6.75;;;;;;;17.78;100.00;100276.47;4983677;28;20144;-75
2023/06/02 01:26:00;;;;;;;15.73;7.00;;;;;;;17.22;100.00;100181.84;4975878;28;20050;-76
2023/06/02 01:28:26;;;;;;;11.20;5.65;;;;;;;17.06;100.00;100157.56;4978981;28;20051;-75
2023/06/02 01:31:06;;;;;;;12.48;6.90;;;;;;;17.65;100.00;100260.09;4988422;28;20045;-77
2023/06/02 01:33:42;;;;;;;9.95;7.78;;;;;;;17.52;100.00;100258.72;4986451;28;20061;-75
2023/06/02 01:36:08;;;;;;;9.90;6.22;;;;;;;17.47;100.00;100228.84;4988721;28;20587;-75
2023/06/02 01:38:36;;;;;;;10.23;5.45;;;;;;;17.18;100.00;100189.94;4987676;28;20046;-76
2023/06/02 01:41:06;;;;;;;9.02;5.50;;;;;;;17.16;100.00;100182.06;4986184;28;20046;-75
2023/06/02 01:43:34;;;;;;;10.63;7.18;;;;;;;16.59;100.00;100092.75;4973658;28;20093;-76
2023/06/02 01:46:01;;;;;;;9.93;6.18;;;;;;;17.58;100.00;100258.53;4983456;28;20058;-75
2023/06/02 01:48:29;;;;;;;7.00;4.72;;;;;;;17.00;100.00;100149.84;4978366;28;20121;-75
2023/06/02 01:50:55;;;;;;;8.10;5.47;;;;;;;17.48;100.00;100219.94;4981205;28;20050;-76
2023/06/02 01:53:20;;;;;;;13.93;7.32;;;;;;;17.70;100.00;100254.66;4985387;28;20066;-76
2023/06/02 01:55:49;;;;;;;9.25;6.25;;;;;;;17.38;100.00;100199.94;4983172;28;21723;-74
2023/06/02 01:58:14;;;;;;;9.70;6.28;;;;;;;17.85;100.00;100271.88;4981284;28;20524;-75
2023/06/02 02:00:40;;;;;;;11.48;8.27;;;;;;;17.30;100.00;100173.63;4982562;28;20038;-74
2023/06/02 02:03:05;;;;;;;10.95;7.55;;;;;;;17.34;100.00;100188.53;4985083;28;20136;-75
2023/06/02 02:05:31;;;;;;;20.95;7.65;;;;;;;17.14;100.00;100183.88;4981861;28;20500;-76
2023/06/02 02:07:57;;;;;;;14.35;6.85;;;;;;;16.99;100.00;100168.44;4982041;28;20062;-74
2023/06/02 02:10:22;;;;;;;10.75;6.18;;;;;;;17.39;100.00;100254.72;4984662;28;20058;-75
2023/06/02 02:12:48;;;;;;;9.32;5.63;;;;;;;16.80;100.00;100157.50;4984195;28;20143;-76
2023/06/02 02:15:14;;;;;;;18.88;7.65;;;;;;;16.70;100.00;100135.69;4983342;28;20165;-75
2023/06/02 02:17:46;;;;;;;10.27;7.18;;;;;;;17.26;100.00;100255.09;4979530;28;20081;-75
2023/06/02 02:20:17;;;;;;;10.60;7.18;;;;;;;16.73;100.00;100145.31;4981006;28;20459;-75
2023/06/02 02:22:43;;;;;;;9.35;5.75;;;;;;;17.28;100.00;100232.06;4979292;28;20046;-75
2023/06/02 02:25:09;;;;;;;13.05;7.28;;;;;;;16.98;100.00;100214.41;4980001;28;20213;-75
2023/06/02 02:27:40;;;;;;;10.48;7.15;;;;;;;16.75;100.00;100151.44;4982522;28;20469;-74
2023/06/02 02:30:06;;;;;;;8.48;5.68;;;;;;;17.28;100.00;100241.78;4981478;28;20063;-75
2023/06/02 02:32:35;;;;;;;8.73;6.63;;;;;;;16.74;100.00;100142.66;4982101;28;20090;-75
2023/06/02 02:35:03;;;;;;;10.20;5.70;;;;;;;16.84;100.00;100210.38;4983603;28;20050;-74
2023/06/02 02:37:28;;;;;;;9.20;6.22;;;;;;;16.38;100.00;100126.88;4984445;28;20050;-77
2023/06/02 02:39:54;;;;;;;13.07;6.57;;;;;;;17.17;100.00;100235.94;4978442;28;20045;-76
2023/06/02 02:42:20;;;;;;;11.88;6.90;;;;;;;16.99;100.00;100216.13;4984297;28;20424;-75
2023/06/02 02:44:45;;;;;;;20.65;5.70;;;;;;;16.58;100.00;100128.13;4979890;28;20058;-76
2023/06/02 02:47:11;;;;;;;13.95;7.57;;;;;;;17.13;100.00;100236.94;4979266;28;20057;-75
2023/06/02 02:49:36;;;;;;;12.20;6.90;;;;;;;16.48;100.00;100146.03;4983761;28;20058;-74
2023/06/02 02:52:02;;;;;;;8.95;5.68;;;;;;;16.65;100.00;100196.75;4978372;28;20050;-74
2023/06/02 02:54:29;;;;;;;9.95;5.60;;;;;;;17.04;100.00;100243.38;4986257;28;20448;-74
2023/06/02 02:56:54;;;;;;;9.35;6.28;;;;;;;17.11;100.00;100241.41;4961224;28;20577;-74
2023/06/02 02:59:21;;;;;;;12.93;6.88;;;;;;;16.68;100.00;100183.41;4977036;28;20046;-75
2023/06/02 03:01:47;;;;;;;10.93;5.70;;;;;;;16.93;100.00;100224.25;4981867;28;20047;-75
2023/06/02 03:04:22;;;;;;;10.15;6.55;;;;;;;16.12;100.00;100066.75;4983449;28;20124;-75
2023/06/02 03:06:49;;;;;;;10.73;6.57;;;;;;;16.66;100.00;100155.22;4977151;28;20125;-75
2023/06/02 03:09:18;;;;;;;9.02;6.53;;;;;;;17.19;100.00;100242.06;4980129;28;20054;-75
2023/06/02 03:11:44;;;;;;;11.75;6.00;;;;;;;17.02;100.00;100226.63;4977144;28;20105;-74
2023/06/02 03:14:10;;;;;;;13.93;7.68;;;;;;;17.07;100.00;100235.34;4981793;28;20061;-74
2023/06/02 03:16:39;;;;;;;9.68;6.40;;;;;;;17.12;100.00;100244.03;4979907;28;20522;-76
2023/06/02 03:19:05;;;;;;;9.13;6.00;;;;;;;16.99;100.00;100232.91;4972619;28;20046;-75
2023/06/02 03:21:31;;;;;;;13.35;6.20;;;;;;;16.40;100.00;100142.75;4984954;28;20438;-75
2023/06/02 03:23:58;;;;;;;8.00;5.93;;;;;;;16.85;100.00;100232.44;4974787;28;20046;-76
2023/06/02 03:26:26;;;;;;;11.27;8.23;;;;;;;16.49;100.00;100139.84;4979631;28;20117;-77
2023/06/02 03:28:52;;;;;;;13.02;6.85;;;;;;;16.84;100.00;100194.47;4979871;28;20058;-75
2023/06/02 03:31:19;;;;;;;11.13;6.25;;;;;;;16.83;100.00;100195.41;4979917;28;20050;-76
2023/06/02 03:33:46;;;;;;;8.27;6.55;;;;;;;16.44;100.00;100124.06;4982975;28;20034;-75
2023/06/02 03:36:12;;;;;;;8.23;5.72;;;;;;;16.73;100.00;100174.47;4981494;28;20049;-75
2023/06/02 03:38:37;;;;;;;12.30;6.65;;;;;;;17.02;100.00;100221.34;4979721;28;20387;-76
2023/06/02 03:41:03;;;;;;;8.70;7.72;;;;;;;16.48;100.00;100116.03;4979370;28;20127;-75
2023/06/02 03:43:28;;;;;;;11.02;6.30;;;;;;;16.55;100.00;100123.78;4978109;28;20568;-75
2023/06/02 03:45:54;;;;;;;9.07;6.68;;;;;;;16.45;100.00;100123.16;4978090;28;20196;-75
2023/06/02 03:48:20;;;;;;;10.07;8.20;;;;;;;16.79;100.00;100142.53;4975042;28;20092;-76
2023/06/02 03:50:46;;;;;;;8.95;6.45;;;;;;;17.11;100.00;100206.94;4988869;28;20054;-75
2023/06/02 03:53:11;;;;;;;12.40;6.78;;;;;;;17.42;100.00;100236.03;4981959;28;20055;-75
2023/06/02 03:55:37;;;;;;;9.38;7.00;;;;;;;17.13;100.00;100194.53;4982145;28;20097;-75
2023/06/02 03:58:02;;;;;;;9.63;7.47;;;;;;;16.83;100.00;100162.72;4983401;28;20037;-76
2023/06/02 04:00:28;;;;;;;9.43;7.32;;;;;;;16.79;100.00;100161.09;4980094;28;20066;-75
2023/06/02 04:02:53;;;;;;;8.60;6.45;;;;;;;17.28;100.00;100236.50;4971490;28;20182;-74
2023/06/02 04:05:19;;;;;;;8.20;5.80;;;;;;;16.98;100.00;100193.22;4980597;28;20054;-75
2023/06/02 04:07:44;;;;;;;12.52;5.93;;;;;;;16.78;100.00;100131.00;4980795;28;20051;-76
2023/06/02 04:10:10;;;;;;;10.02;7.00;;;;;;;17.01;100.00;100135.66;4984151;28;20113;-76
2023/06/02 04:12:36;;;;;;;8.27;6.07;;;;;;;17.56;100.00;100236.50;4984878;28;20038;-75
2023/06/02 04:15:01;;;;;;;8.88;6.72;;;;;;;17.24;100.00;100155.28;4983022;28;20886;-74
2023/06/02 04:17:27;;;;;;;7.75;5.43;;;;;;;17.09;100.00;100156.63;4981988;28;20465;-74
2023/06/02 04:19:52;;;;;;;9.68;6.80;;;;;;;17.86;100.00;100255.03;4984765;28;20086;-74
2023/06/02 04:22:19;;;;;;;13.38;7.15;;;;;;;17.38;100.00;100152.19;4985299;28;20060;-75
2023/06/02 04:24:47;;;;;;;10.02;6.70;;;;;;;17.89;100.00;100228.41;4979358;28;20041;-74
2023/06/02 04:27:17;;;;;;;9.52;6.78;;;;;;;17.30;100.00;100145.34;4978590;28;20055;-74
2023/06/02 04:29:43;;;;;;;9.30;6.20;;;;;;;17.47;100.00;100163.38;4985476;28;20069;-74
2023/06/02 04:32:09;;;;;;;9.80;6.55;;;;;;;18.04;100.00;100259.72;4979366;28;20046;-75
2023/06/02 04:34:35;;;;;;;9.13;7.18;;;;;;;18.01;100.00;100262.50;4984369;28;20053;-75
2023/06/02 04:37:02;;;;;;;11.80;7.15;;;;;;;17.74;100.00;100203.19;4976353;28;20053;-75
2023/06/02 04:39:28;;;;;;;18.15;7.10;;;;;;;17.61;100.00;100162.94;4985877;28;20046;-75
2023/06/02 04:41:57;;;;;;;8.63;6.00;;;;;;;18.01;100.00;100201.44;4981851;28;20058;-75
2023/06/02 04:44:23;;;;;;;6.45;5.07;;;;;;;18.57;100.00;100264.13;4971982;28;20074;-74
2023/06/02 04:46:49;;;;;;;10.32;6.28;;;;;;;18.52;100.00;100256.31;4969370;28;20170;-75
2023/06/02 04:49:15;;;;;;;12.00;6.55;;;;;;;17.35;100.00;100076.25;4975229;28;20711;-76
2023/06/02 04:51:41;;;;;;;10.57;6.18;;;;;;;18.12;100.00;100151.47;4982085;28;20050;-78
2023/06/02 04:54:06;;;;;;;9.63;6.63;;;;;;;17.64;100.00;100040.75;4964872;28;20039;-74
2023/06/02 04:56:36;;;;;;;15.20;7.97;;;;;;;18.96;100.00;100250.34;4963545;28;20047;-75
2023/06/02 04:59:02;;;;;;;11.20;7.82;;;;;;;18.49;100.00;100163.41;4971546;28;20105;-75
2023/06/02 05:01:28;;;;;;;10.50;7.32;;;;;;;19.13;100.00;100237.28;4983960;28;20053;-75
2023/06/02 05:03:54;;;;;;;11.35;8.35;;;;;;;19.06;100.00;100185.25;4981792;28;20137;-76
2023/06/02 05:06:20;;;;;;;10.20;7.30;;;;;;;19.98;100.00;100264.09;4982850;28;20043;-75
2023/06/02 05:08:46;;;;;;;12.30;6.72;;;;;;;20.06;100.00;100212.31;4983721;28;20612;-75
2023/06/02 05:11:11;;;;;;;11.40;6.75;;;;;;;21.03;100.00;100291.63;4984587;28;20050;-75
2023/06/02 05:13:37;;;;;;;9.68;6.75;;;;;;;20.97;100.00;100227.88;4973845;28;20050;-77
2023/06/02 05:16:03;;;;;;;20.55;7.28;;;;;;;21.00;100.00;100257.06;4981765;28;20049;-76
2023/06/02 05:18:28;;;;;;;8.88;6.28;;;;;;;21.68;100.00;100305.53;4982286;28;20057;-76
2023/06/02 05:20:55;;;;;;;11.88;7.90;;;;;;;22.01;100.00;100296.81;4978436;28;20050;-75
2023/06/02 05:23:21;;;;;;;10.65;8.75;;;;;;;21.17;100.00;100198.47;4977817;28;20581;-76
2023/06/02 05:25:48;;;;;;;10.48;7.55;;;;;;;22.54;100.00;100310.19;4983924;28;20084;-75
2023/06/02 05:28:14;;;;;;;9.00;6.28;;;;;;;23.00;100.00;100296.25;4983494;28;20081;-76
2023/06/02 05:30:39;;;;;;;9.00;6.53;;;;;;;23.06;100.00;100233.47;4975183;28;20792;-76
2023/06/02 05:33:05;;;;;;;10.52;7.15;;;;;;;23.73;100.00;100322.63;4977717;28;20054;-76
2023/06/02 05:35:31;;;;;;;16.13;8.10;;;;;;;23.91;100.00;100292.13;4979016;28;20048;-75
2023/06/02 05:37:56;;;;;;;10.32;7.60;;;;;;;23.97;100.00;100297.13;4978462;28;20050;-75
2023/06/02 05:40:22;;;;;;;10.57;5.95;;;;;;;23.74;100.00;100212.72;4979047;28;20052;-74
2023/06/02 05:42:47;;;;;;;13.15;7.20;;;;;;;23.15;100.00;100195.50;4981190;28;20486;-75
2023/06/02 05:45:13;;;;;;;11.60;7.22;;;;;;;24.66;100.00;100308.34;4975938;28;20101;-74
2023/06/02 05:47:38;;;;;;;10.25;7.15;;;;;;;24.12;100.00;100271.25;4975788;28;20058;-74
2023/06/02 05:50:04;;;;;;;10.85;6.72;;;;;;;24.02;100.00;100296.84;4980607;28;20046;-75
2023/06/02 05:52:30;;;;;;;9.25;5.70;;;;;;;25.01;100.00;100294.56;4983685;28;20054;-75
2023/06/02 05:54:56;;;;;;;8.38;7.28;;;;;;;25.27;100.00;100309.09;4976412;28;20100;-76
2023/06/02 05:57:23;;;;;;;8.77;5.72;;;;;;;24.78;100.00;100296.84;4981993;28;20042;-75
2023/06/02 05:59:49;;;;;;;7.80;6.38;;;;;;;24.05;100.00;100232.34;4976870;28;20049;-76
2023/06/02 06:02:14;;;;;;;9.93;6.63;;;;;;;24.04;100.00;100197.59;4971518;28;20660;-77
2023/06/02 06:04:40;;;;;;;10.65;6.22;;;;;;;24.05;100.00;100216.28;4969819;28;20521;-75
2023/06/02 06:07:06;;;;;;;11.10;7.28;;;;;;;23.87;100.00;100236.13;4973230;28;20053;-80
2023/06/02 06:09:37;;;;;;;7.25;6.05;;;;;;;24.97;100.00;100306.44;4953410;28;20121;-80
2023/06/02 06:12:02;;;;;;;10.35;6.80;;;;;;;23.97;100.00;100087.19;4976415;28;20435;-79
2023/06/02 06:14:28;;;;;;;8.18;5.00;;;;;;;24.85;100.00;100286.59;4977173;28;20781;-78
2023/06/02 06:16:53;;;;;;;11.18;7.10;;;;;;;24.78;100.00;100258.41;4983310;28;20046;-80
2023/06/02 06:19:19;;;;;;;17.23;6.85;;;;;;;24.23;100.00;100196.41;4981412;28;20046;-73
2023/06/02 06:21:44;;;;;;;7.65;4.75;;;;;;;24.36;100.00;100226.03;4979704;28;20185;-74
2023/06/02 06:24:10;;;;;;;9.35;6.35;;;;;;;24.52;100.00;100317.22;4978541;28;20441;-72
2023/06/02 06:26:35;;;;;;;7.63;5.25;;;;;;;24.88;100.00;100307.03;4977825;28;20066;-65
2023/06/02 06:29:01;;;;;;;6.78;4.88;;;;;;;24.71;100.00;100303.53;4972557;28;20078;-69
2023/06/02 06:31:26;;;;;;;6.53;4.90;;;;;;;24.02;100.00;100211.97;4977217;28;20431;-70
2023/06/02 06:33:52;;;;;;;5.35;3.78;;;;;;;24.37;100.00;100133.88;4977682;28;20042;-70
2023/06/02 06:36:18;;;;;;;11.65;6.15;;;;;;;24.69;97.67;100243.72;4980494;28;20162;-67
2023/06/02 06:38:43;;;;;;;6.90;4.50;;;;;;;24.98;100.00;100239.25;4977229;28;20058;-71
2023/06/02 06:41:09;;;;;;;9.13;5.40;;;;;;;25.74;99.46;100283.69;4981059;28;20107;-70
2023/06/02 06:43:35;;;;;;;12.98;6.75;;;;;;;25.99;94.82;100300.91;4978173;28;20042;-77
2023/06/02 06:46:00;;;;;;;6.45;4.97;;;;;;;25.49;96.82;100206.47;4981626;28;20061;-79
2023/06/02 06:48:26;;;;;;;10.10;5.70;;;;;;;25.44;95.20;100204.09;4980688;28;20659;-74
2023/06/02 06:50:51;;;;;;;11.27;6.70;;;;;;;25.80;94.69;100268.97;5003862;28;20056;-71
2023/06/02 06:53:18;;;;;;;6.82;5.30;;;;;;;26.08;97.75;100270.72;4977603;28;20062;-72
2023/06/02 06:55:44;;;;;;;8.25;4.88;;;;;;;26.26;99.00;100296.38;4977790;28;20064;-76
2023/06/02 06:58:10;;;;;;;8.40;5.95;;;;;;;26.19;95.58;100297.75;4978709;28;20537;-72
2023/06/02 07:00:35;;;;;;;8.48;5.68;;;;;;;25.68;100.00;100231.19;4994248;28;20034;-77
2023/06/02 07:03:01;;;;;;;7.15;4.80;;;;;;;25.77;93.25;100271.84;4976992;28;20545;-69
2023/06/02 07:05:28;;;;;;;9.68;5.45;;;;;;;25.79;95.46;100273.47;4974235;28;20066;-72
2023/06/02 07:07:54;;;;;;;12.82;5.68;;;;;;;25.88;90.16;100245.16;4983222;28;20049;-72
2023/06/02 07:10:19;;;;;;;8.43;6.15;;;;;;;25.22;90.36;100214.53;4984375;28;20050;-79
2023/06/02 07:12:45;;;;;;;8.07;5.22;;;;;;;25.72;100.00;100269.47;4985472;28;20093;-75
2023/06/02 07:15:10;;;;;;;8.63;4.95;;;;;;;25.43;84.99;100293.72;4985107;28;20101;-72
2023/06/02 07:17:38;;;;;;;7.50;5.55;;;;;;;25.64;82.83;100267.28;4981995;28;20047;-68
2023/06/02 07:20:03;;;;;;;14.38;5.47;;;;;;;25.67;80.91;100280.53;4981921;28;20564;-73
2023/06/02 07:22:30;;;;;;;11.15;4.20;;;;;;;26.05;83.45;100290.59;4982878;28;20050;-72
2023/06/02 07:24:55;;;;;;;9.60;6.50;;;;;;;26.18;87.56;100297.88;4982164;28;20045;-70
2023/06/02 07:27:21;;;;;;;8.23;5.63;;;;;;;24.69;80.50;100192.75;4982494;28;20363;-72
2023/06/02 07:29:46;;;;;;;6.25;5.43;;;;;;;26.00;82.62;100265.84;4984391;28;20169;-71
2023/06/02 07:32:12;;;;;;;10.38;4.65;;;;;;;26.04;70.28;100296.97;4973449;28;20086;-71
2023/06/02 07:34:39;;;;;;;9.68;5.38;;;;;;;25.24;81.30;100201.84;4980628;28;20046;-74
2023/06/02 07:37:05;;;;;;;10.73;5.43;;;;;;;25.49;67.11;100210.00;4977914;28;20516;-73
2023/06/02 07:39:30;;;;;;;6.57;5.18;;;;;;;26.18;67.25;100234.16;4979296;28;20027;-71
2023/06/02 07:41:56;;;;;;;7.28;3.88;;;;;;;24.95;64.93;100187.56;4986002;28;20062;-73
2023/06/02 07:44:21;;;;;;;7.53;3.88;;;;;;;26.17;69.53;100218.13;4982090;28;20054;-72
2023/06/02 07:46:47;;;;;;;11.77;4.70;;;;;;;26.73;63.64;100310.28;4980350;28;20074;-70
2023/06/02 07:49:13;;;;;;;5.90;3.83;;;;;;;26.17;62.33;100226.19;4979750;28;20053;-68
2023/06/02 07:51:39;;;;;;;6.35;3.70;;;;;;;26.87;62.84;100277.84;4978960;28;20054;-73
2023/06/02 07:54:05;;;;;;;5.68;4.15;;;;;;;27.34;66.03;100307.81;4982340;28;20074;-70
2023/06/02 07:56:31;;;;;;;7.00;4.55;;;;;;;26.58;59.50;100309.50;4983276;28;20049;-70
2023/06/02 07:58:57;;;;;;;6.25;3.78;;;;;;;26.94;64.02;100219.91;4986640;28;20158;-69
2023/06/02 08:01:22;;;;;;;5.15;2.90;;;;;;;27.06;58.81;100209.22;4979991;28;20491;-70
2023/06/02 08:03:48;;;;;;;8.88;3.33;;;;;;;27.35;60.77;100239.50;4979468;28;20062;-69
2023/06/02 08:06:15;;;;;;;6.93;2.67;;;;;;;27.36;54.66;100274.38;4978553;28;20050;-80
2023/06/02 08:08:41;;;;;;;8.82;3.65;;;;;;;26.63;54.39;100311.88;4975671;28;20556;-79
2023/06/02 08:11:07;;;;;;;7.47;2.08;;;;;;;25.92;55.13;100183.97;4977888;28;20054;-83
2023/06/02 08:13:32;;;;;;;4.28;2.58;;;;;;;26.43;54.30;100203.72;4975928;28;20133;-77
2023/06/02 08:15:59;;;;;;;7.10;3.45;;;;;;;27.81;54.70;100299.94;4977892;28;20033;-77
2023/06/02 08:18:25;;;;;;;3.60;2.53;;;;;;;27.13;52.48;100221.28;4980986;28;20037;-78
2023/06/02 08:20:51;;;;;;;3.97;2.95;;;;;;;26.82;52.27;100193.00;4981498;28;20054;-78
2023/06/02 08:23:17;;;;;;;3.40;2.60;;;;;;;27.88;51.45;100285.91;4982352;28;20046;-76
2023/06/02 08:25:44;;;;;;;11.18;3.40;;;;;;;27.89;53.64;100274.16;4973168;28;20081;-77
2023/06/02 08:28:11;;;;;;;6.60;3.67;;;;;;;27.41;51.12;100257.88;4977689;28;20134;-77
2023/06/02 08:30:37;;;;;;;5.28;3.13;;;;;;;27.28;53.06;100278.63;4982723;28;20100;-77
2023/06/02 08:33:08;;;;;;;8.10;3.20;;;;;;;27.62;54.23;100188.06;4980459;28;20053;-77
2023/06/02 08:35:36;;;;;;;6.05;4.65;;;;;;;27.59;53.31;100158.63;4975132;28;20136;-76
2023/06/02 08:38:07;;;;;;;9.23;5.88;;;;;;;28.13;50.55;100259.78;4974400;28;20073;-76
2023/06/02 08:40:41;;;;;;;4.53;3.20;;;;;;;27.85;49.73;100240.28;4977699;28;20124;-79
2023/06/02 08:43:09;;;;;;;6.30;3.95;;;;;;;26.18;53.07;100171.44;4978429;28;20038;-76
2023/06/02 08:45:48;;;;;;;7.07;3.40;;;;;;;27.36;56.12;100155.81;4979413;28;20049;-77
2023/06/02 08:48:17;;;;;;;5.45;3.80;;;;;;;27.78;50.03;100164.34;4974288;28;20069;-75
2023/06/02 08:50:53;;;;;;;4.43;2.88;;;;;;;29.09;50.15;100256.84;4980554;28;20046;-76
2023/06/02 08:53:23;;;;;;;6.45;3.92;;;;;;;29.08;49.08;100270.47;4980548;28;20202;-77
2023/06/02 08:55:49;;;;;;;5.75;3.33;;;;;;;28.38;51.49;100274.97;4981477;28;20054;-73
2023/06/02 08:58:14;;;;;;;10.23;4.15;;;;;;;28.15;49.99;100245.22;4980009;28;20054;-72
2023/06/02 09:00:40;;;;;;;5.70;3.50;;;;;;;29.29;49.32;100251.69;4985398;28;20561;-72
2023/06/02 09:03:06;;;;;;;6.60;3.95;;;;;;;29.15;46.89;100179.81;4980845;28;20075;-72
2023/06/02 09:05:33;;;;;;;9.65;3.30;;;;;;;29.90;45.52;100262.03;4981509;28;20062;-71
2023/06/02 09:08:12;;;;;;;6.78;3.28;;;;;;;28.44;45.87;100193.50;4984822;28;20057;-72
2023/06/02 09:10:42;;;;;;;5.10;3.50;;;;;;;27.88;48.71;100190.66;4983429;28;20047;-72
2023/06/02 09:13:27;;;;;;;5.00;2.40;;;;;;;28.26;46.80;100263.28;4980125;28;20038;-71
2023/06/02 09:16:03;;;;;;;4.68;2.88;;;;;;;29.03;45.79;100160.03;4973460;28;20474;-70
2023/06/02 09:18:29;;;;;;;4.53;2.10;;;;;;;29.17;44.97;100164.34;4981145;28;20454;-71
2023/06/02 09:20:59;;;;;;;4.72;3.28;;;;;;;29.50;45.11;100163.44;4983627;28;20720;-70
2023/06/02 09:23:42;;;;;;;5.43;2.92;;;;;;;29.73;46.39;100176.88;4973208;28;20829;-72
2023/06/02 09:26:30;;;;;;;4.90;2.83;;;;;;;27.62;46.76;100150.31;4980274;28;20058;-70
2023/06/02 09:29:11;;;;;;;7.70;3.80;;;;;;;28.92;43.64;100158.22;4974596;28;20089;-71
2023/06/02 09:31:56;;;;;;;5.45;2.17;;;;;;;29.50;44.72;100244.53;4978749;28;20058;-71
2023/06/02 09:34:23;;;;;;;3.58;2.42;;;;;;;28.60;46.04;100220.19;4981624;28;20140;-70
2023/06/02 09:36:53;;;;;;;4.80;2.70;;;;;;;30.14;43.91;100230.19;4979229;28;20044;-70
2023/06/02 09:39:38;;;;;;;5.47;3.00;;;;;;;29.77;42.79;100222.47;4982131;28;20050;-70
2023/06/02 09:42:04;;;;;;;4.40;2.95;;;;;;;28.48;42.48;100134.78;4981758;28;20109;-71
2023/06/02 09:44:30;;;;;;;4.32;2.58;;;;;;;29.60;42.30;100120.25;4982472;28;20129;-73
2023/06/02 09:46:56;;;;;;;8.30;4.28;;;;;;;31.15;41.74;100212.44;4980641;28;20760;-73
2023/06/02 09:49:21;;;;;;;4.07;2.58;;;;;;;29.50;42.36;100151.72;4975623;28;20475;-72
2023/06/02 09:51:47;;;;;;;5.60;3.15;;;;;;;30.78;40.91;100131.69;4972642;28;20053;-72
2023/06/02 09:54:13;;;;;;;5.00;2.42;;;;;;;31.00;41.23;100151.44;4981717;28;20045;-74
2023/06/02 09:56:38;;;;;;;6.45;3.13;;;;;;;29.82;41.81;100152.59;4969969;28;20209;-72
2023/06/02 09:59:08;;;;;;;3.38;2.22;;;;;;;29.50;41.65;100173.34;4976498;28;20033;-72
2023/06/02 10:01:35;;;;;;;4.97;2.60;;;;;;;30.12;42.76;100188.03;4985456;28;20046;-73
2023/06/02 10:04:04;;;;;;;4.45;2.22;;;;;;;31.06;42.47;100126.53;4985560;28;20038;-72
2023/06/02 10:06:41;;;;;;;4.40;2.15;;;;;;;31.21;43.66;100200.16;4979909;28;20042;-72
2023/06/02 10:09:27;;;;;;;5.57;2.63;;;;;;;31.22;42.11;100102.44;4975887;28;20138;-73
2023/06/02 10:12:09;;;;;;;2.75;1.88;;;;;;;31.14;43.46;100191.75;4983448;28;20038;-72
2023/06/02 10:15:09;;;;;;;3.43;2.20;;;;;;;28.79;46.23;100189.91;4973490;28;20134;-73
2023/06/02 10:17:43;;;;;;;6.53;3.03;;;;;;;29.75;44.51;100185.72;4981073;28;20149;-71
2023/06/02 10:20:37;;;;;;;4.22;2.75;;;;;;;30.97;42.77;100160.72;4987373;28;20038;-72
2023/06/02 10:23:20;;;;;;;5.88;3.40;;;;;;;31.61;42.93;100074.50;4988143;28;20375;-71
2023/06/02 10:26:10;;;;;;;6.95;2.53;;;;;;;32.13;40.38;100162.75;4977210;28;20065;-72
2023/06/02 10:28:36;;;;;;;2.58;1.73;;;;;;;31.78;40.73;100149.75;4983593;28;20768;-72
2023/06/02 10:31:10;;;;;;;4.55;2.15;;;;;;;29.35;40.72;100078.19;4976240;28;20033;-72
2023/06/02 10:33:48;;;;;;;3.13;1.98;;;;;;;31.73;40.63;100161.03;4984296;28;20130;-74
2023/06/02 10:36:17;;;;;;;3.92;2.47;;;;;;;31.62;38.67;100142.19;4982103;28;20042;-73
2023/06/02 10:38:43;;;;;;;5.63;3.10;;;;;;;30.59;39.04;100134.31;4982374;28;20046;-73
2023/06/02 10:41:09;;;;;;;4.20;1.85;;;;;;;30.78;38.05;100092.91;4983963;28;20049;-72
2023/06/02 10:43:35;;;;;;;5.90;2.80;;;;;;;31.58;38.99;100119.03;4980766;28;20031;-71
2023/06/02 10:46:20;;;;;;;5.97;2.63;;;;;;;31.46;39.95;100147.31;4979783;28;20105;-72
2023/06/02 10:48:47;;;;;;;6.93;4.25;;;;;;;31.29;41.03;100146.97;4976756;28;20517;-71
2023/06/02 10:51:13;;;;;;;4.30;2.03;;;;;;;31.45;39.48;100048.81;4978976;28;20054;-71
2023/06/02 10:54:04;;;;;;;3.90;1.75;;;;;;;30.71;39.99;100127.81;4980329;28;20142;-72
2023/06/02 10:56:35;;;;;;;4.90;2.00;;;;;;;32.02;40.71;100135.75;4983858;28;20049;-72
2023/06/02 10:59:02;;;;;;;5.20;2.38;;;;;;;31.32;37.25;100121.41;4974081;28;20450;-71
2023/06/02 11:01:46;;;;;;;2.17;1.52;;;;;;;29.53;39.48;100043.34;4980201;28;20047;-72
2023/06/02 11:04:28;;;;;;;2.72;1.92;;;;;;;30.42;39.03;100123.13;4987423;28;20038;-71
2023/06/02 11:07:23;;;;;;;4.45;2.80;;;;;;;30.41;37.88;99972.47;4989423;28;20037;-72
2023/06/02 11:10:00;;;;;;;4.85;3.80;;;;;;;30.40;38.44;99987.00;4984002;28;20137;-71
2023/06/02 11:12:51;;;;;;;2.83;1.95;;;;;;;31.54;38.12;100123.91;4981378;28;20545;-71
2023/06/02 11:15:19;;;;;;;2.90;1.95;;;;;;;31.85;39.76;100101.19;4987173;28;20152;-72
2023/06/02 11:17:49;;;;;;;3.80;2.17;;;;;;;31.97;38.08;100100.03;4986415;28;20062;-72
2023/06/02 11:20:17;;;;;;;3.45;1.85;;;;;;;31.93;38.39;100082.31;4972732;28;20038;-71
2023/06/02 11:22:43;;;;;;;3.45;2.20;;;;;;;32.13;39.38;100129.31;4978909;28;20113;-71